首页
METAR-TAF:

METAR-TAF

机场 :

杭州萧山国际机场

杭州, 中华人民共和国

纬度: 30-14N, 经度: 120-10E, 海拔: 43米

当前天气观测

该预报发布于24分钟前的04:30 UTC
风速8节,风向,在北转西北北转东北之间变化
温度 12°C
湿度 100%
气压 1020 hPa
能見度: 4000
少量云层高于300英尺
多云层高于600英尺
多云层高于2000英尺
小雨, 轻雾

METAR: ZSHC 180430Z 36004MPS 330V030 4000 -RA BR FEW003 BKN006 BKN020 12/12 Q1020 NOSIG

时间: 12:54 (04:54 UTC)

预报

该预报发布于9小时和34分钟前的19:20 UTC
预报有效从18日的 00点(UTC)到 18日的 24点(UTC)
风速8节,风向北转东北
能見度: 3000
少量云层高于400英尺
多云层高于700英尺
多云层高于2000英尺
小雨, 轻雾
短暂存在
从 18日的 05点(UTC)到 18日的 11点(UTC)
能見度: 2000
多云层高于700英尺
多云层高于2000英尺
少量云层高于3000英尺, 积雨云.
阵雨, 轻雾

TAF: ZSHC 171920Z 1800/1824 02004MPS 3000 -RA BR FEW004 BKN007 BKN020 TX14/1806Z TN10/1821Z TEMPO 1805/1811 2000 SHRA BR BKN007 BKN020 FEW030CB

超过4000个机场的气象观测和天气预报(METAR&TAF报告)。

可查询的气象台以黄色和红色小点在地图上表示。

将鼠标移到小点上方,可查看气象台名称。

然后点击查看天气观测和预报。

如需切换地图:点击带黑十字的绿色按钮放大地图;点击带横线的绿色按钮缩小地图;或者点击绿色箭头查看邻近地区的地图。


METAR-TAF: